Delta Virtual Airport Information Service

San Diego International Airport

ICAO: KSAN Country: United States
Latitude: 32.7336 Longitude: -117.189
Latest Arrival : DAL6171791 (KPHX-KSAN) Latest Departure : SWA1213 (KSAN-MMSD)


WX CaptureLIVE
Data provided by noaa.gov | Fetched at 04:45:08

METAR : KSAN 030951Z 00000KT 7SM OVC010 14/11 A3012 RMK AO2 SLP200 T01390111

TAF : KSAN 030846Z 0309/0412 VRB04KT P6SM OVC012 FM032000 29008KT P6SM SCT018 FM040100 30005KT P6SM OVC014


Runway Data for KSAN
Data provided by openaviationdata.com

Runway ID Mag Var Hdg Length Elevation Surface ILS Freq ILS Id ILS Slope
9 13 92° 9394 ft 15 ft Concrete 110.9 ISAN 3
27 13 272° 9394 ft 15 ft Concrete 110.9 IUBR 0

San Diego International Airport, United States
Use only for reference purposes



Not for navigational purposes.